Time;durP1;ratioP1;P1;durP2;ratioP2;P2;SDS_P1;SDS_P2;PMS_P1;PMS_P2;Temp;Humidity;BMP_temperature;BMP_pressure;BME280_temperature;BME280_humidity;BME280_pressure;Samples;Min_cycle;Max_cycle;Signal;HPM_P1;HPM_P2
2024/01/03 00:00:13;;;;;;;0.10;0.00;;;;;;;;;;5067630;28;20443;-59
2024/01/03 00:02:38;;;;;;;0.75;0.10;;;;;;;;;;5062267;28;20044;-58
2024/01/03 00:05:04;;;;;;;0.33;0.10;;;;;;;;;;5066671;28;20056;-57
2024/01/03 00:07:29;;;;;;;0.68;0.10;;;;;;;;;;5062464;28;20380;-59
2024/01/03 00:09:55;;;;;;;0.93;0.10;;;;;;;;;;5069827;28;20363;-59
2024/01/03 00:12:22;;;;;;;0.52;0.00;;;;;;;;;;5063363;28;20017;-59
2024/01/03 00:14:47;;;;;;;0.15;0.10;;;;;;;;;;5058264;28;20431;-60
2024/01/03 00:17:13;;;;;;;0.10;0.00;;;;;;;;;;5053092;28;20025;-59
2024/01/03 00:19:39;;;;;;;0.30;0.00;;;;;;;;;;5071856;28;20038;-59
2024/01/03 00:22:04;;;;;;;;;;;;;;;;;;5073845;28;20020;-60
2024/01/03 00:24:44;;;;;;;0.40;0.10;;;;;;;;;;5069616;28;19912;-60
2024/01/03 00:27:10;;;;;;;0.30;0.10;;;;;;;;;;5066877;28;20020;-59
2024/01/03 00:29:44;;;;;;;0.28;0.00;;;;;;;;;;5071812;28;20050;-59
2024/01/03 00:32:10;;;;;;;0.03;0.00;;;;;;;;;;5063595;28;20020;-59
2024/01/03 00:34:41;;;;;;;0.13;0.00;;;;;;;;;;5067437;28;20033;-58
2024/01/03 00:37:15;;;;;;;0.03;0.00;;;;;;;;;;5065918;28;20059;-59
2024/01/03 00:39:41;;;;;;;1.35;0.20;;;;;;;;;;5064664;28;20430;-59
2024/01/03 00:42:06;;;;;;;0.30;0.00;;;;;;;;;;5061864;28;20054;-59
2024/01/03 00:44:31;;;;;;;0.05;0.05;;;;;;;;;;5063287;28;20029;-59
2024/01/03 00:46:56;;;;;;;0.73;0.20;;;;;;;;;;5059599;28;20021;-60
2024/01/03 00:49:23;;;;;;;0.68;0.13;;;;;;;;;;5061877;28;20025;-59
2024/01/03 00:51:48;;;;;;;0.95;0.20;;;;;;;;;;5067656;28;20028;-59
2024/01/03 00:54:18;;;;;;;0.20;0.10;;;;;;;;;;5068506;28;20074;-60
2024/01/03 00:56:44;;;;;;;0.95;0.17;;;;;;;;;;5055775;28;20476;-58
2024/01/03 00:59:10;;;;;;;0.50;0.10;;;;;;;;;;5060904;28;20107;-59
2024/01/03 01:01:35;;;;;;;0.32;0.10;;;;;;;;;;5069663;28;20024;-60
2024/01/03 01:04:00;;;;;;;0.27;0.10;;;;;;;;;;5071365;28;20434;-59
2024/01/03 01:06:25;;;;;;;0.53;0.10;;;;;;;;;;5057321;28;20052;-59
2024/01/03 01:08:50;;;;;;;0.77;0.20;;;;;;;;;;5065029;28;20017;-58
2024/01/03 01:11:15;;;;;;;0.20;0.00;;;;;;;;;;5064213;28;20693;-59
2024/01/03 01:13:41;;;;;;;1.63;0.20;;;;;;;;;;5064710;28;20463;-59
2024/01/03 01:16:06;;;;;;;1.55;0.20;;;;;;;;;;5068813;28;20036;-59
2024/01/03 01:18:31;;;;;;;0.60;0.03;;;;;;;;;;5071324;28;20077;-60
2024/01/03 01:20:56;;;;;;;1.02;0.20;;;;;;;;;;5072774;28;20376;-60
2024/01/03 01:23:21;;;;;;;0.68;0.10;;;;;;;;;;5067780;28;20025;-59
2024/01/03 01:25:46;;;;;;;0.32;0.10;;;;;;;;;;5057089;28;20029;-60
2024/01/03 01:28:11;;;;;;;0.70;0.28;;;;;;;;;;5067293;28;20443;-59
2024/01/03 01:30:37;;;;;;;0.38;0.10;;;;;;;;;;5068152;28;20029;-59
2024/01/03 01:33:02;;;;;;;0.55;0.10;;;;;;;;;;5053006;28;20060;-59
2024/01/03 01:35:27;;;;;;;1.10;0.10;;;;;;;;;;5060618;28;20461;-59
2024/01/03 01:37:52;;;;;;;0.93;0.20;;;;;;;;;;5070779;28;20100;-59
2024/01/03 01:40:17;;;;;;;0.20;0.05;;;;;;;;;;5069819;28;20013;-59
2024/01/03 01:42:45;;;;;;;0.37;0.07;;;;;;;;;;5059441;28;20070;-59
2024/01/03 01:45:10;;;;;;;1.27;0.10;;;;;;;;;;5067564;28;20480;-59
2024/01/03 01:47:37;;;;;;;0.97;0.20;;;;;;;;;;5072638;28;20050;-59
2024/01/03 01:50:02;;;;;;;0.20;0.10;;;;;;;;;;5066878;28;20475;-60
2024/01/03 01:52:27;;;;;;;0.35;0.10;;;;;;;;;;5061064;28;20088;-59
2024/01/03 01:54:52;;;;;;;0.17;0.10;;;;;;;;;;5066870;28;20392;-59
2024/01/03 01:57:18;;;;;;;0.73;0.10;;;;;;;;;;5069413;28;20025;-59
2024/01/03 01:59:44;;;;;;;0.25;0.10;;;;;;;;;;5060204;28;20036;-60
2024/01/03 02:02:10;;;;;;;0.30;0.10;;;;;;;;;;5059725;28;20439;-58
2024/01/03 02:04:35;;;;;;;;;;;;;;;;;;5066178;28;20027;-60
2024/01/03 02:07:01;;;;;;;0.95;0.10;;;;;;;;;;5072015;28;19908;-59
2024/01/03 02:09:26;;;;;;;0.57;0.15;;;;;;;;;;5071673;28;20024;-58
2024/01/03 02:11:51;;;;;;;0.50;0.10;;;;;;;;;;5071532;28;20043;-58
2024/01/03 02:14:16;;;;;;;1.70;0.30;;;;;;;;;;5065828;28;20028;-59
2024/01/03 02:16:41;;;;;;;0.30;0.10;;;;;;;;;;5064363;28;20046;-59
2024/01/03 02:19:07;;;;;;;0.53;0.10;;;;;;;;;;5051977;28;20052;-58
2024/01/03 02:21:32;;;;;;;0.30;0.10;;;;;;;;;;5052100;28;20538;-59
2024/01/03 02:23:57;;;;;;;0.20;0.10;;;;;;;;;;5057095;28;20476;-58
2024/01/03 02:26:22;;;;;;;0.30;0.10;;;;;;;;;;5068137;28;20031;-59
2024/01/03 02:28:47;;;;;;;0.30;0.10;;;;;;;;;;5067312;28;20055;-58
2024/01/03 02:31:12;;;;;;;0.85;0.20;;;;;;;;;;5067726;28;20028;-59
2024/01/03 02:33:37;;;;;;;2.72;0.30;;;;;;;;;;5062948;28;20115;-59
2024/01/03 02:36:03;;;;;;;1.47;0.10;;;;;;;;;;5070899;28;20095;-59
2024/01/03 02:38:28;;;;;;;1.20;0.30;;;;;;;;;;5074532;28;20071;-59
2024/01/03 02:40:53;;;;;;;0.25;0.15;;;;;;;;;;5074356;28;20021;-60
2024/01/03 02:43:18;;;;;;;0.97;0.20;;;;;;;;;;5070133;28;20058;-59
2024/01/03 02:45:43;;;;;;;0.30;0.20;;;;;;;;;;5065299;28;20024;-58
2024/01/03 02:48:09;;;;;;;0.75;0.20;;;;;;;;;;5069130;28;20365;-59
2024/01/03 02:50:34;;;;;;;0.83;0.20;;;;;;;;;;5067475;28;20071;-59
2024/01/03 02:53:00;;;;;;;0.30;0.13;;;;;;;;;;5064553;28;20111;-59
2024/01/03 02:55:25;;;;;;;0.98;0.20;;;;;;;;;;5051498;28;20028;-58
2024/01/03 02:57:50;;;;;;;0.73;0.05;;;;;;;;;;5059810;28;20012;-59
2024/01/03 03:00:16;;;;;;;0.30;0.20;;;;;;;;;;5059287;28;20036;-59
2024/01/03 03:02:41;;;;;;;1.45;0.30;;;;;;;;;;5066088;28;20043;-59
2024/01/03 03:05:06;;;;;;;0.38;0.20;;;;;;;;;;5070867;28;20028;-59
2024/01/03 03:07:32;;;;;;;1.00;0.20;;;;;;;;;;5058039;28;20574;-59
2024/01/03 03:09:57;;;;;;;0.38;0.10;;;;;;;;;;5070774;28;20024;-57
2024/01/03 03:12:22;;;;;;;0.75;0.20;;;;;;;;;;5068930;28;20388;-60
2024/01/03 03:14:47;;;;;;;0.55;0.20;;;;;;;;;;5070193;28;20037;-59
2024/01/03 03:17:12;;;;;;;0.67;0.30;;;;;;;;;;5069772;28;20028;-59
2024/01/03 03:19:37;;;;;;;1.50;0.20;;;;;;;;;;5070597;28;20020;-58
2024/01/03 03:22:03;;;;;;;0.52;0.10;;;;;;;;;;5054610;28;20082;-60
2024/01/03 03:24:28;;;;;;;3.33;0.50;;;;;;;;;;5053450;28;20544;-58
2024/01/03 03:26:54;;;;;;;1.00;0.30;;;;;;;;;;5067997;28;20403;-59
2024/01/03 03:29:20;;;;;;;;;;;;;;;;;;5065671;28;20104;-58
2024/01/03 03:31:45;;;;;;;0.20;0.10;;;;;;;;;;5067285;28;19956;-58
2024/01/03 03:34:10;;;;;;;0.77;0.10;;;;;;;;;;5065239;28;20025;-58
2024/01/03 03:36:35;;;;;;;1.33;0.20;;;;;;;;;;5050303;28;20032;-58
2024/01/03 03:39:00;;;;;;;0.50;0.17;;;;;;;;;;5070268;28;20021;-57
2024/01/03 03:41:25;;;;;;;0.57;0.20;;;;;;;;;;5074903;28;20036;-58
2024/01/03 03:43:51;;;;;;;0.67;0.20;;;;;;;;;;5076834;28;20052;-59
2024/01/03 03:46:16;;;;;;;0.47;0.20;;;;;;;;;;5073578;28;20366;-57
2024/01/03 03:48:42;;;;;;;0.40;0.17;;;;;;;;;;5067458;28;20243;-59
2024/01/03 03:51:07;;;;;;;0.97;0.10;;;;;;;;;;5078996;28;20627;-59
2024/01/03 03:53:32;;;;;;;0.20;0.10;;;;;;;;;;5083357;28;20029;-58
2024/01/03 03:55:57;;;;;;;0.88;0.17;;;;;;;;;;5079928;28;20047;-59
2024/01/03 03:58:22;;;;;;;0.38;0.20;;;;;;;;;;5073905;28;20086;-58
2024/01/03 04:00:47;;;;;;;1.25;0.20;;;;;;;;;;5068004;28;20418;-58
2024/01/03 04:03:12;;;;;;;0.05;0.05;;;;;;;;;;5058268;28;20032;-59
2024/01/03 04:05:38;;;;;;;0.22;0.10;;;;;;;;;;5066169;28;20079;-59
2024/01/03 04:08:04;;;;;;;1.35;0.30;;;;;;;;;;5070131;28;20497;-60
2024/01/03 04:10:29;;;;;;;1.25;0.20;;;;;;;;;;5070203;28;20031;-59
2024/01/03 04:12:55;;;;;;;2.40;0.20;;;;;;;;;;5073672;28;20400;-60
2024/01/03 04:15:20;;;;;;;1.17;0.30;;;;;;;;;;5071938;28;20032;-58
2024/01/03 04:17:45;;;;;;;1.35;0.17;;;;;;;;;;5067831;28;20032;-58
2024/01/03 04:20:10;;;;;;;0.93;0.20;;;;;;;;;;5069249;28;20032;-57
2024/01/03 04:22:36;;;;;;;0.90;0.20;;;;;;;;;;5071681;28;20029;-59
2024/01/03 04:25:01;;;;;;;0.43;0.10;;;;;;;;;;5076802;28;20036;-58
2024/01/03 04:27:26;;;;;;;1.45;0.30;;;;;;;;;;5064000;28;20094;-60
2024/01/03 04:29:51;;;;;;;0.47;0.10;;;;;;;;;;5056521;28;20020;-59
2024/01/03 04:32:16;;;;;;;1.13;0.15;;;;;;;;;;5056207;28;20025;-59
2024/01/03 04:34:42;;;;;;;0.47;0.20;;;;;;;;;;5066646;28;20079;-60
2024/01/03 04:37:07;;;;;;;0.85;0.20;;;;;;;;;;5075681;28;20016;-60
2024/01/03 04:39:32;;;;;;;0.93;0.33;;;;;;;;;;5074611;28;20052;-58
2024/01/03 04:41:57;;;;;;;1.27;0.27;;;;;;;;;;5073792;28;20016;-59
2024/01/03 04:44:22;;;;;;;1.75;0.45;;;;;;;;;;5077197;28;20020;-58
2024/01/03 04:46:48;;;;;;;0.15;0.05;;;;;;;;;;5077090;28;20358;-59
2024/01/03 04:49:13;;;;;;;0.95;0.20;;;;;;;;;;5074464;28;20025;-59
2024/01/03 04:51:38;;;;;;;0.22;0.13;;;;;;;;;;5067900;28;20051;-59
2024/01/03 04:54:03;;;;;;;0.55;0.45;;;;;;;;;;5065362;28;20418;-59
2024/01/03 04:56:29;;;;;;;1.13;0.22;;;;;;;;;;5072391;28;20028;-59
2024/01/03 04:58:54;;;;;;;0.98;0.20;;;;;;;;;;5053210;28;20079;-58
2024/01/03 05:01:19;;;;;;;0.45;0.10;;;;;;;;;;5076344;28;20025;-59
2024/01/03 05:03:45;;;;;;;1.08;0.20;;;;;;;;;;5083590;28;20038;-59
2024/01/03 05:06:10;;;;;;;0.80;0.10;;;;;;;;;;5066151;28;20029;-58
2024/01/03 05:08:35;;;;;;;0.88;0.28;;;;;;;;;;5069118;28;20488;-60
2024/01/03 05:11:00;;;;;;;0.75;0.13;;;;;;;;;;5072708;28;20070;-59
2024/01/03 05:13:29;;;;;;;1.13;0.20;;;;;;;;;;5057318;28;20021;-59
2024/01/03 05:15:54;;;;;;;1.15;0.15;;;;;;;;;;5060949;28;20135;-59
2024/01/03 05:18:19;;;;;;;1.08;0.30;;;;;;;;;;5053225;28;20056;-58
2024/01/03 05:20:44;;;;;;;0.63;0.25;;;;;;;;;;5054584;28;20484;-59
2024/01/03 05:23:09;;;;;;;2.35;0.20;;;;;;;;;;5063149;28;20036;-59
2024/01/03 05:25:34;;;;;;;0.40;0.10;;;;;;;;;;5071018;28;20016;-59
2024/01/03 05:28:00;;;;;;;1.33;0.20;;;;;;;;;;5062205;28;20023;-59
2024/01/03 05:30:25;;;;;;;0.98;0.20;;;;;;;;;;5071063;28;20107;-60
2024/01/03 05:32:50;;;;;;;3.63;0.68;;;;;;;;;;5072219;28;20082;-59
2024/01/03 05:35:15;;;;;;;1.08;0.20;;;;;;;;;;5070154;28;20028;-60
2024/01/03 05:37:40;;;;;;;1.30;0.20;;;;;;;;;;5063754;28;20060;-59
2024/01/03 05:40:06;;;;;;;0.80;0.17;;;;;;;;;;5073333;28;20099;-59
2024/01/03 05:42:32;;;;;;;0.82;0.20;;;;;;;;;;5070464;28;20451;-58
2024/01/03 05:44:57;;;;;;;0.68;0.20;;;;;;;;;;5071146;28;20013;-59
2024/01/03 05:47:22;;;;;;;1.70;0.20;;;;;;;;;;5069417;28;20025;-59
2024/01/03 05:49:47;;;;;;;1.55;0.30;;;;;;;;;;5071915;28;20059;-59
2024/01/03 05:52:12;;;;;;;1.25;0.25;;;;;;;;;;5073523;28;20032;-59
2024/01/03 05:54:37;;;;;;;1.77;0.20;;;;;;;;;;5062654;28;20597;-59
2024/01/03 05:57:03;;;;;;;1.90;0.20;;;;;;;;;;5063376;28;20130;-59
2024/01/03 05:59:28;;;;;;;0.60;0.20;;;;;;;;;;5058724;28;20585;-60
2024/01/03 06:01:54;;;;;;;1.00;0.20;;;;;;;;;;5062207;28;20054;-58
2024/01/03 06:04:19;;;;;;;1.03;0.20;;;;;;;;;;5053461;28;20052;-59
2024/01/03 06:06:44;;;;;;;1.15;0.28;;;;;;;;;;5058965;28;20024;-58
2024/01/03 06:09:10;;;;;;;0.75;0.20;;;;;;;;;;5064930;28;20032;-60
2024/01/03 06:11:35;;;;;;;1.15;0.20;;;;;;;;;;5064735;28;20491;-60
2024/01/03 06:14:00;;;;;;;2.63;0.30;;;;;;;;;;5066393;28;21442;-59
2024/01/03 06:16:26;;;;;;;0.95;0.30;;;;;;;;;;5058806;28;20032;-59
2024/01/03 06:18:51;;;;;;;1.73;0.30;;;;;;;;;;5052091;28;20468;-58
2024/01/03 06:21:16;;;;;;;0.25;0.10;;;;;;;;;;5065514;28;20059;-60
2024/01/03 06:23:41;;;;;;;1.10;0.20;;;;;;;;;;5070608;28;20043;-60
2024/01/03 06:26:07;;;;;;;1.23;0.20;;;;;;;;;;5071339;28;20357;-58
2024/01/03 06:28:32;;;;;;;1.45;0.35;;;;;;;;;;5071295;28;20054;-60
2024/01/03 06:30:57;;;;;;;2.57;0.30;;;;;;;;;;5071158;28;20488;-58
2024/01/03 06:33:22;;;;;;;1.38;0.20;;;;;;;;;;5071356;28;20193;-58
2024/01/03 06:35:47;;;;;;;1.35;0.17;;;;;;;;;;5071242;28;20024;-58
2024/01/03 06:38:12;;;;;;;2.50;0.33;;;;;;;;;;5065521;28;20535;-59
2024/01/03 06:40:37;;;;;;;2.78;0.40;;;;;;;;;;5066987;28;20464;-59
2024/01/03 06:43:03;;;;;;;2.55;0.30;;;;;;;;;;5065305;28;20095;-59
2024/01/03 06:45:28;;;;;;;3.93;0.70;;;;;;;;;;5060070;28;20378;-60
2024/01/03 06:47:53;;;;;;;3.90;0.50;;;;;;;;;;5068796;28;20036;-60
2024/01/03 06:50:18;;;;;;;1.35;0.30;;;;;;;;;;5053394;28;20091;-59
2024/01/03 06:52:43;;;;;;;1.60;0.30;;;;;;;;;;5066474;28;20031;-59
2024/01/03 06:55:08;;;;;;;3.55;0.47;;;;;;;;;;5067066;28;20060;-60
2024/01/03 06:57:33;;;;;;;1.48;0.22;;;;;;;;;;5067323;28;20024;-59
2024/01/03 06:59:59;;;;;;;1.83;0.20;;;;;;;;;;5063687;28;20352;-60
2024/01/03 07:02:24;;;;;;;1.25;0.20;;;;;;;;;;5062484;28;20068;-59
2024/01/03 07:04:49;;;;;;;2.88;0.40;;;;;;;;;;5066461;28;20135;-59
2024/01/03 07:07:16;;;;;;;1.63;0.33;;;;;;;;;;5060613;28;20051;-59
2024/01/03 07:09:42;;;;;;;2.83;0.30;;;;;;;;;;5068057;28;20020;-59
2024/01/03 07:12:07;;;;;;;1.97;0.40;;;;;;;;;;5057155;28;20017;-58
2024/01/03 07:14:32;;;;;;;1.77;0.30;;;;;;;;;;5052408;28;20413;-60
2024/01/03 07:16:57;;;;;;;2.33;0.52;;;;;;;;;;5051130;28;20032;-59
2024/01/03 07:19:22;;;;;;;1.05;0.20;;;;;;;;;;5058032;28;20142;-57
2024/01/03 07:21:47;;;;;;;0.77;0.15;;;;;;;;;;5064678;28;20378;-59
2024/01/03 07:24:13;;;;;;;4.40;0.60;;;;;;;;;;5068220;28;20212;-59
2024/01/03 07:26:38;;;;;;;2.23;0.47;;;;;;;;;;5057782;28;20031;-60
2024/01/03 07:29:03;;;;;;;1.80;0.40;;;;;;;;;;5063101;28;20166;-61
2024/01/03 07:31:28;;;;;;;2.03;0.20;;;;;;;;;;5058279;28;20039;-60
2024/01/03 07:33:53;;;;;;;2.83;0.40;;;;;;;;;;5070430;28;20028;-60
2024/01/03 07:36:19;;;;;;;1.70;0.30;;;;;;;;;;5065704;28;20616;-59
2024/01/03 07:38:44;;;;;;;2.00;0.47;;;;;;;;;;5070211;28;20035;-59
2024/01/03 07:41:10;;;;;;;4.23;0.50;;;;;;;;;;5069911;28;20013;-59
2024/01/03 07:43:35;;;;;;;2.70;0.40;;;;;;;;;;5070109;28;20538;-59
2024/01/03 07:46:00;;;;;;;2.92;0.47;;;;;;;;;;5070452;28;20017;-59
2024/01/03 07:48:25;;;;;;;3.53;0.47;;;;;;;;;;5067999;28;20036;-60
2024/01/03 07:50:51;;;;;;;3.28;0.60;;;;;;;;;;5066944;28;20392;-60
2024/01/03 07:53:16;;;;;;;3.67;0.50;;;;;;;;;;5066666;28;20052;-59
2024/01/03 07:55:41;;;;;;;3.58;0.52;;;;;;;;;;5069920;28;20024;-59
2024/01/03 07:58:06;;;;;;;1.92;0.35;;;;;;;;;;5066987;28;20036;-59
2024/01/03 08:00:31;;;;;;;2.90;0.47;;;;;;;;;;5057669;28;20036;-60
2024/01/03 08:02:57;;;;;;;3.13;0.40;;;;;;;;;;5058207;28;20087;-58
2024/01/03 08:05:22;;;;;;;3.28;0.55;;;;;;;;;;5070734;28;20099;-59
2024/01/03 08:07:47;;;;;;;2.27;0.40;;;;;;;;;;5069943;28;20021;-57
2024/01/03 08:10:12;;;;;;;2.43;0.30;;;;;;;;;;5070331;28;20442;-59
2024/01/03 08:12:37;;;;;;;3.50;0.50;;;;;;;;;;5069733;28;20069;-59
2024/01/03 08:15:03;;;;;;;3.95;0.63;;;;;;;;;;5070018;28;20028;-60
2024/01/03 08:17:28;;;;;;;4.60;0.60;;;;;;;;;;5070194;28;20009;-59
2024/01/03 08:19:53;;;;;;;3.42;0.52;;;;;;;;;;5055071;28;20025;-60
2024/01/03 08:22:18;;;;;;;5.30;0.88;;;;;;;;;;5062134;28;20494;-56
2024/01/03 08:24:44;;;;;;;2.95;0.60;;;;;;;;;;5070187;28;20085;-58
2024/01/03 08:27:09;;;;;;;3.55;0.60;;;;;;;;;;5072735;28;20032;-60
2024/01/03 08:29:37;;;;;;;4.07;0.38;;;;;;;;;;5075068;28;20090;-58
2024/01/03 08:32:02;;;;;;;1.92;0.35;;;;;;;;;;5074686;28;20020;-58
2024/01/03 08:34:27;;;;;;;2.80;0.40;;;;;;;;;;5072805;28;20048;-59
2024/01/03 08:36:52;;;;;;;5.03;0.60;;;;;;;;;;5071924;28;20519;-59
2024/01/03 08:39:17;;;;;;;3.33;0.60;;;;;;;;;;5074217;28;20024;-59
2024/01/03 08:41:42;;;;;;;3.83;0.53;;;;;;;;;;5072857;28;20392;-58
2024/01/03 08:44:08;;;;;;;3.03;0.40;;;;;;;;;;5074059;28;20025;-58
2024/01/03 08:46:42;;;;;;;4.10;0.60;;;;;;;;;;5076202;28;20020;-58
2024/01/03 08:49:08;;;;;;;2.67;0.40;;;;;;;;;;5070292;28;20016;-57
2024/01/03 08:51:33;;;;;;;2.75;0.32;;;;;;;;;;5073125;28;20024;-60
2024/01/03 08:53:58;;;;;;;4.23;0.60;;;;;;;;;;5072839;28;20012;-61
2024/01/03 08:56:24;;;;;;;1.57;0.30;;;;;;;;;;5072185;28;20032;-59
2024/01/03 08:58:49;;;;;;;2.03;0.30;;;;;;;;;;5073141;28;20055;-58
2024/01/03 09:01:15;;;;;;;2.50;0.50;;;;;;;;;;5073008;28;20431;-57
2024/01/03 09:03:40;;;;;;;3.17;0.43;;;;;;;;;;5064423;28;20389;-57
2024/01/03 09:06:06;;;;;;;4.55;0.50;;;;;;;;;;5073448;28;20024;-57
2024/01/03 09:08:31;;;;;;;2.17;0.37;;;;;;;;;;5073190;28;20028;-57
2024/01/03 09:10:56;;;;;;;3.07;0.50;;;;;;;;;;5072858;28;20025;-58
2024/01/03 09:13:21;;;;;;;2.60;0.40;;;;;;;;;;5074332;28;20384;-59
2024/01/03 09:15:46;;;;;;;3.25;0.50;;;;;;;;;;5073806;28;20036;-59
2024/01/03 09:18:11;;;;;;;4.27;0.60;;;;;;;;;;5070622;28;20122;-59
2024/01/03 09:20:37;;;;;;;2.97;0.43;;;;;;;;;;5069850;28;20023;-59
2024/01/03 09:23:02;;;;;;;3.15;0.52;;;;;;;;;;5069185;28;20101;-59
2024/01/03 09:25:27;;;;;;;6.73;0.87;;;;;;;;;;5073701;28;20035;-58
2024/01/03 09:27:53;;;;;;;5.55;0.63;;;;;;;;;;5073453;28;20059;-59
2024/01/03 09:30:18;;;;;;;3.03;0.60;;;;;;;;;;5071144;28;20024;-59
2024/01/03 09:32:43;;;;;;;1.83;0.55;;;;;;;;;;5072320;28;20023;-60
2024/01/03 09:35:10;;;;;;;3.63;0.50;;;;;;;;;;5069757;28;20032;-58
2024/01/03 09:37:35;;;;;;;5.25;0.60;;;;;;;;;;5071214;28;20062;-60
2024/01/03 09:40:00;;;;;;;5.38;1.02;;;;;;;;;;5072254;28;20036;-58
2024/01/03 09:42:26;;;;;;;6.55;0.73;;;;;;;;;;5072267;28;20051;-57
2024/01/03 09:44:51;;;;;;;2.83;0.50;;;;;;;;;;5067908;28;20489;-58
2024/01/03 09:47:16;;;;;;;4.50;0.50;;;;;;;;;;5072759;28;20111;-59
2024/01/03 09:49:44;;;;;;;3.90;0.63;;;;;;;;;;5066947;28;20059;-59
2024/01/03 09:52:11;;;;;;;4.35;0.70;;;;;;;;;;5070498;28;20400;-59
2024/01/03 09:54:36;;;;;;;5.55;0.60;;;;;;;;;;5069690;28;20020;-59
2024/01/03 09:57:01;;;;;;;4.07;0.77;;;;;;;;;;5069858;28;20104;-58
2024/01/03 09:59:26;;;;;;;3.73;0.50;;;;;;;;;;5071019;28;20024;-58
2024/01/03 10:01:55;;;;;;;4.03;0.47;;;;;;;;;;5072441;28;20183;-59
2024/01/03 10:04:21;;;;;;;5.80;0.70;;;;;;;;;;5072968;28;20384;-58
2024/01/03 10:06:50;;;;;;;3.47;0.60;;;;;;;;;;5072520;28;20025;-57
2024/01/03 10:09:17;;;;;;;3.60;0.60;;;;;;;;;;5072288;28;20016;-57
2024/01/03 10:11:42;;;;;;;3.08;0.50;;;;;;;;;;5068743;28;20024;-57
2024/01/03 10:14:16;;;;;;;4.28;0.60;;;;;;;;;;5072176;28;20055;-58
2024/01/03 10:16:43;;;;;;;3.40;0.52;;;;;;;;;;5072621;28;20035;-60
2024/01/03 10:19:12;;;;;;;4.03;0.63;;;;;;;;;;5071651;28;20503;-57
2024/01/03 10:21:40;;;;;;;4.47;0.57;;;;;;;;;;5071058;28;20028;-58
2024/01/03 10:24:08;;;;;;;4.38;0.50;;;;;;;;;;5070512;28;20138;-59
2024/01/03 10:26:33;;;;;;;4.68;0.60;;;;;;;;;;5071780;28;20066;-59
2024/01/03 10:29:09;;;;;;;3.58;0.60;;;;;;;;;;5071691;28;20419;-60
2024/01/03 10:31:34;;;;;;;2.33;0.50;;;;;;;;;;5069224;28;20078;-59
2024/01/03 10:33:59;;;;;;;4.70;0.70;;;;;;;;;;5071074;28;20020;-59
2024/01/03 10:36:24;;;;;;;3.77;0.80;;;;;;;;;;5071194;28;20036;-59
2024/01/03 10:38:50;;;;;;;3.17;0.60;;;;;;;;;;5069942;28;20028;-59
2024/01/03 10:41:16;;;;;;;3.50;0.60;;;;;;;;;;5069468;28;20454;-59
2024/01/03 10:43:42;;;;;;;2.58;0.45;;;;;;;;;;5070593;28;20476;-58
2024/01/03 10:46:07;;;;;;;3.33;0.63;;;;;;;;;;5071145;28;20062;-59
2024/01/03 10:48:33;;;;;;;4.75;0.60;;;;;;;;;;5070517;28;20021;-58
2024/01/03 10:50:59;;;;;;;6.87;0.80;;;;;;;;;;5070750;28;20032;-58
2024/01/03 10:53:26;;;;;;;3.20;0.70;;;;;;;;;;5070782;28;20048;-60
2024/01/03 10:55:53;;;;;;;5.72;0.98;;;;;;;;;;5061194;28;20029;-59
2024/01/03 10:58:20;;;;;;;5.57;1.00;;;;;;;;;;5070710;28;20040;-59
2024/01/03 11:00:53;;;;;;;5.22;0.85;;;;;;;;;;5070239;28;20032;-59
2024/01/03 11:03:25;;;;;;;2.58;0.45;;;;;;;;;;5071153;28;20146;-58
2024/01/03 11:05:59;;;;;;;5.40;0.70;;;;;;;;;;5071701;28;20393;-58
2024/01/03 11:08:28;;;;;;;4.97;0.70;;;;;;;;;;5072312;28;20012;-58
2024/01/03 11:10:56;;;;;;;3.60;0.60;;;;;;;;;;5069383;28;20024;-59
2024/01/03 11:13:28;;;;;;;4.75;0.70;;;;;;;;;;5071653;28;20017;-57
2024/01/03 11:15:53;;;;;;;6.80;0.60;;;;;;;;;;5070823;28;20113;-57
2024/01/03 11:18:37;;;;;;;4.40;0.65;;;;;;;;;;5070911;28;20483;-58
2024/01/03 11:21:21;;;;;;;4.28;0.70;;;;;;;;;;5070374;28;20028;-57
2024/01/03 11:23:46;;;;;;;2.65;0.43;;;;;;;;;;5068585;28;20032;-57
2024/01/03 11:26:11;;;;;;;5.63;0.80;;;;;;;;;;5070641;28;20086;-58
2024/01/03 11:28:36;;;;;;;4.75;0.98;;;;;;;;;;5065956;28;20053;-59
2024/01/03 11:31:02;;;;;;;3.95;0.60;;;;;;;;;;5068344;28;20063;-58
2024/01/03 11:33:30;;;;;;;4.15;0.93;;;;;;;;;;5070710;28;20028;-58
2024/01/03 11:35:55;;;;;;;4.88;0.70;;;;;;;;;;5071141;28;20077;-58
2024/01/03 11:38:40;;;;;;;5.80;0.80;;;;;;;;;;5071387;28;20099;-59
2024/01/03 11:41:05;;;;;;;4.97;0.73;;;;;;;;;;5070619;28;20044;-58
2024/01/03 11:43:30;;;;;;;4.73;0.57;;;;;;;;;;5070408;28;20017;-59
2024/01/03 11:46:11;;;;;;;3.97;0.65;;;;;;;;;;5063716;28;20025;-59
2024/01/03 11:48:38;;;;;;;2.72;0.47;;;;;;;;;;5070754;28;20017;-60
2024/01/03 11:51:18;;;;;;;1.70;0.30;;;;;;;;;;5070466;28;20017;-57
2024/01/03 11:53:43;;;;;;;2.97;0.40;;;;;;;;;;5070329;28;20044;-59
2024/01/03 11:56:09;;;;;;;2.33;0.43;;;;;;;;;;5070402;28;20024;-58
2024/01/03 11:58:34;;;;;;;3.43;0.60;;;;;;;;;;5070873;28;20488;-59
2024/01/03 12:01:07;;;;;;;3.80;0.52;;;;;;;;;;5067905;28;20016;-59
2024/01/03 12:03:32;;;;;;;3.80;0.50;;;;;;;;;;5070635;28;20390;-58
2024/01/03 12:05:57;;;;;;;2.65;0.40;;;;;;;;;;5074417;28;20083;-59
2024/01/03 12:08:22;;;;;;;2.35;0.50;;;;;;;;;;5074369;28;20045;-59
2024/01/03 12:10:48;;;;;;;2.07;0.50;;;;;;;;;;5074159;28;20086;-60
2024/01/03 12:13:14;;;;;;;3.20;0.57;;;;;;;;;;5073902;28;20099;-60
2024/01/03 12:15:39;;;;;;;2.88;0.52;;;;;;;;;;5074386;28;20024;-60
2024/01/03 12:18:07;;;;;;;2.05;0.50;;;;;;;;;;5067003;28;20387;-60
2024/01/03 12:20:33;;;;;;;2.72;0.55;;;;;;;;;;5074128;28;20507;-58
2024/01/03 12:23:25;;;;;;;1.80;0.30;;;;;;;;;;5073966;28;20086;-59
2024/01/03 12:25:50;;;;;;;2.42;0.30;;;;;;;;;;5072051;28;20024;-58
2024/01/03 12:28:19;;;;;;;1.55;0.30;;;;;;;;;;5071852;28;20032;-58
2024/01/03 12:30:44;;;;;;;2.30;0.30;;;;;;;;;;5074224;28;20538;-58
2024/01/03 12:33:15;;;;;;;2.80;0.70;;;;;;;;;;5066876;28;20024;-58
2024/01/03 12:35:40;;;;;;;3.90;0.75;;;;;;;;;;5071715;28;20029;-57
2024/01/03 12:38:05;;;;;;;1.33;0.30;;;;;;;;;;5073413;28;20036;-59
2024/01/03 12:40:31;;;;;;;4.18;0.60;;;;;;;;;;5060910;28;20375;-60
2024/01/03 12:42:56;;;;;;;2.72;0.32;;;;;;;;;;5074103;28;20021;-59
2024/01/03 12:45:21;;;;;;;3.67;0.40;;;;;;;;;;5074705;28;20362;-59
2024/01/03 12:47:46;;;;;;;3.03;0.50;;;;;;;;;;5074805;28;20027;-59
2024/01/03 12:50:11;;;;;;;3.58;0.52;;;;;;;;;;5075287;28;20437;-59
2024/01/03 12:52:37;;;;;;;3.38;0.70;;;;;;;;;;5060873;28;20013;-56
2024/01/03 12:55:03;;;;;;;3.60;0.47;;;;;;;;;;5073836;28;20032;-59
2024/01/03 12:57:28;;;;;;;1.77;0.30;;;;;;;;;;5074517;28;20017;-58
2024/01/03 12:59:53;;;;;;;2.43;0.50;;;;;;;;;;5074338;28;20019;-59
2024/01/03 13:02:19;;;;;;;2.45;0.40;;;;;;;;;;5073775;28;20036;-59
2024/01/03 13:04:45;;;;;;;4.10;0.40;;;;;;;;;;5060332;28;20043;-59
2024/01/03 13:07:10;;;;;;;1.92;0.45;;;;;;;;;;5068079;28;20021;-59
2024/01/03 13:09:35;;;;;;;2.73;0.40;;;;;;;;;;5053020;28;20075;-59
2024/01/03 13:12:00;;;;;;;2.03;0.30;;;;;;;;;;5052657;28;20047;-59
2024/01/03 13:14:25;;;;;;;4.37;0.40;;;;;;;;;;5053883;28;20025;-59
2024/01/03 13:16:50;;;;;;;3.90;0.60;;;;;;;;;;5053514;28;20083;-59
2024/01/03 13:19:16;;;;;;;2.38;0.32;;;;;;;;;;5064578;28;20025;-59
2024/01/03 13:21:41;;;;;;;1.57;0.40;;;;;;;;;;5073418;28;20491;-60
2024/01/03 13:24:06;;;;;;;2.25;0.50;;;;;;;;;;5053106;28;20104;-60
2024/01/03 13:26:32;;;;;;;2.27;0.30;;;;;;;;;;5053142;28;20021;-59
2024/01/03 13:28:57;;;;;;;2.78;0.50;;;;;;;;;;5053275;28;20504;-58
2024/01/03 13:31:22;;;;;;;1.70;0.28;;;;;;;;;;5053289;28;20028;-59
2024/01/03 13:33:47;;;;;;;1.98;0.30;;;;;;;;;;5056420;28;20063;-58
2024/01/03 13:36:12;;;;;;;2.30;0.30;;;;;;;;;;5067741;28;20021;-59
2024/01/03 13:38:37;;;;;;;2.40;0.33;;;;;;;;;;5073250;28;20520;-60
2024/01/03 13:41:05;;;;;;;2.27;0.30;;;;;;;;;;5072904;28;20035;-57
2024/01/03 13:43:30;;;;;;;2.72;0.40;;;;;;;;;;5073074;28;20025;-59
2024/01/03 13:45:55;;;;;;;2.45;0.30;;;;;;;;;;5073799;28;20021;-60
2024/01/03 13:48:21;;;;;;;2.10;0.20;;;;;;;;;;5070227;28;20029;-59
2024/01/03 13:50:46;;;;;;;0.50;0.10;;;;;;;;;;5069965;28;20078;-60
2024/01/03 13:53:11;;;;;;;2.30;0.43;;;;;;;;;;5072692;28;20022;-60
2024/01/03 13:55:37;;;;;;;3.70;0.43;;;;;;;;;;5072802;28;20476;-58
2024/01/03 13:58:02;;;;;;;2.33;0.30;;;;;;;;;;5073386;28;20015;-59
2024/01/03 14:00:27;;;;;;;0.93;0.20;;;;;;;;;;5072784;28;20040;-59
2024/01/03 14:02:55;;;;;;;2.78;0.30;;;;;;;;;;5072145;28;20112;-60
2024/01/03 14:05:20;;;;;;;1.17;0.20;;;;;;;;;;5069252;28;20341;-60
2024/01/03 14:07:46;;;;;;;1.08;0.30;;;;;;;;;;5072287;28;20020;-59
2024/01/03 14:10:11;;;;;;;2.83;0.33;;;;;;;;;;5071975;28;20477;-60
2024/01/03 14:12:36;;;;;;;1.90;0.40;;;;;;;;;;5058552;28;20559;-59
2024/01/03 14:15:01;;;;;;;2.37;0.40;;;;;;;;;;5069958;28;20403;-59
2024/01/03 14:17:26;;;;;;;2.77;0.30;;;;;;;;;;5072230;28;20020;-59
2024/01/03 14:19:51;;;;;;;2.15;0.43;;;;;;;;;;5070622;28;20025;-60
2024/01/03 14:22:17;;;;;;;1.55;0.32;;;;;;;;;;5071271;28;20077;-59
2024/01/03 14:24:42;;;;;;;1.33;0.40;;;;;;;;;;5064895;28;20030;-60
2024/01/03 14:27:07;;;;;;;3.23;0.70;;;;;;;;;;5067454;28;20097;-59
2024/01/03 14:29:32;;;;;;;3.43;0.80;;;;;;;;;;5070516;28;20539;-59
2024/01/03 14:31:57;;;;;;;2.55;0.50;;;;;;;;;;5056312;28;20021;-57
2024/01/03 14:34:23;;;;;;;3.20;0.40;;;;;;;;;;5061385;28;20024;-58